Aeroporto :
LOGIN :

Iscrizione | Disclaimer

   EN    FR    IT 

 










Sommario :    VFR   VFR Marginale   IFR   IFR Intensivo   IFR Molto Intensivo
Visibilità : 
Base nubi : 
>= 8 km
>= 3000ft
5 / 8 km
1000 / 3000 ft
1500m / 5 km
500 / 1000 ft
800 / 1500m
200 / 500 ft
< 800m
< 200 ft
Simboli :   Temporali  Nebbia  Neve Forte  Precipitazioni Forti  Vento > 20 kt
SIGMETs :   Varie  Temporali  Ghiacco  Turbolenza  Onda orograficha  Ceneri Vulcaniche






- Altitudine del aeroporto : 1247 ft
- Codice IATA : PRG


LKPR - Praha Ruzyne

ULTIMO METAR :
  • 280030Z 33010KT 3500 SN BKN002 OVC004 M00/M01 Q1000 BECMG 5000 -SN SCT003 OVC010

METARs OBSOLETI :
  • 280000Z 34010KT 3000 SN BKN002 OVC004 M00/M01 Q0999 BECMG 5000 -SN SCT003 OVC010
  • 272330Z 35009KT 4000 SN FEW001 OVC002 M00/M01 Q0998 BECMG 5000 -SN SCT003 OVC010
  • 272323Z 35009KT 3500 SN FEW001 BKN002 OVC005 M00/M01 Q0998 RMK REG QNH 0991
  • 272317Z 35008KT 3500 SN SCT002 BKN003 OVC011 M00/M01 Q0997 RMK REG QNH 0991
  • 272306Z 35008KT 300V010 5000 -SN BKN003 OVC012 M00/M01 Q0997 RMK REG QNH 0991
  • 272244Z 01009KT 4000 SN FEW003 BKN008 OVC015 00/M01 Q0996 RMK REG QNH 0991
  • 272230Z 36008KT 3600 SN FEW008 BKN011 OVC022 00/M01 Q0996 TEMPO BKN009
  • 272215Z 36009KT 3000 SN VV015 00/M01 Q0996 RMK REG QNH 0991

TAF TAF LKPR
Valido dal 28 a 00 ore il 29 a 06 ore UTC


272300Z 2800/2906 34012KT 9999 BKN020
TEMPO 2800/2818 33012G24KT 5000 -SN OVC012
PROB30
TEMPO 2800/2806 2000 SN BKN003
BECMG 2818/2821 19010KT CAVOK
BECMG 2901/2903 9999 -SN BKN020
TEMPO 2903/2906 4000 SN BKN012



MetMap, La meteo Aeronautica in un colpo d'occhio ! - Copyright ORBIFLY Dicembre 2007 - Disclaimer

ORBIFLY MET'MAP TEAM :

Programmazione e sviluppo : Alexandra Zaïnal
Concezione : Baudouin d'Aumeries
Aiuto per la programmazione : Marc-Olivier Méhu
Supporto tecnico e logistico : Manuel Goepfert
Aiuto per la traduzione : Arnaldo La Scala

Contatto : metmap@orbifly.com




FONTI E CREDITI :

   NOAA